createdAt,value
2022-11-14T00:00:24.828Z,9.26
2022-11-14T00:02:52.610Z,9.27
2022-11-14T00:05:21.895Z,9.25
2022-11-14T00:07:49.527Z,9.22
2022-11-14T00:10:18.041Z,9.23
2022-11-14T00:12:45.964Z,9.22
2022-11-14T00:15:14.168Z,9.22
2022-11-14T00:17:42.048Z,9.22
2022-11-14T00:20:11.973Z,9.19
2022-11-14T00:22:41.141Z,9.17
2022-11-14T00:25:09.516Z,9.17
2022-11-14T00:27:37.221Z,9.15
2022-11-14T00:30:05.656Z,9.14
2022-11-14T00:32:33.445Z,9.15
2022-11-14T00:35:01.086Z,9.14
2022-11-14T00:37:28.723Z,9.14
2022-11-14T00:39:57.700Z,9.11
2022-11-14T00:42:25.370Z,9.09
2022-11-14T00:44:52.986Z,9.09
2022-11-14T00:47:20.706Z,9.09
2022-11-14T00:49:48.327Z,9.03
2022-11-14T00:52:15.950Z,9.07
2022-11-14T00:54:43.608Z,9.06
2022-11-14T00:57:12.675Z,9.06
2022-11-14T00:59:40.294Z,9.02
2022-11-14T01:02:08.083Z,9.02
2022-11-14T01:04:35.817Z,9.01
2022-11-14T01:07:03.482Z,8.89
2022-11-14T01:09:31.217Z,8.99
2022-11-14T01:11:58.961Z,8.98
2022-11-14T01:14:28.010Z,8.97
2022-11-14T01:16:55.812Z,8.96
2022-11-14T01:19:23.463Z,8.96
2022-11-14T01:21:51.077Z,8.95
2022-11-14T01:24:18.701Z,8.91
2022-11-14T01:26:46.328Z,8.88
2022-11-14T01:29:13.970Z,8.83
2022-11-14T01:31:42.970Z,8.85
2022-11-14T01:34:10.918Z,8.87
2022-11-14T01:36:38.543Z,8.87
2022-11-14T01:39:06.238Z,8.85
2022-11-14T01:41:33.926Z,8.85
2022-11-14T01:44:01.491Z,8.85
2022-11-14T01:46:31.693Z,8.77
2022-11-14T01:49:03.515Z,8.82
2022-11-14T01:51:35.778Z,8.84
2022-11-14T01:54:05.398Z,8.82
2022-11-14T01:56:35.110Z,8.82
2022-11-14T01:59:06.525Z,8.81
2022-11-14T02:01:37.539Z,8.79
2022-11-14T02:04:11.630Z,8.78
2022-11-14T02:06:41.995Z,8.78
2022-11-14T02:09:09.572Z,8.76
2022-11-14T02:11:39.418Z,8.75
2022-11-14T02:14:07.401Z,8.74
2022-11-14T02:16:35.347Z,8.74
2022-11-14T02:19:03.036Z,8.71
2022-11-14T02:21:32.147Z,8.72
2022-11-14T02:23:59.815Z,8.70
2022-11-14T02:26:27.504Z,8.67
2022-11-14T02:28:56.416Z,8.66
2022-11-14T02:31:24.078Z,8.64
2022-11-14T02:33:51.705Z,8.62
2022-11-14T02:36:19.363Z,8.62
2022-11-14T02:38:48.479Z,8.63
2022-11-14T02:41:16.177Z,8.61
2022-11-14T02:43:43.908Z,8.59
2022-11-14T02:46:11.713Z,8.56
2022-11-14T02:48:39.349Z,8.55
2022-11-14T02:51:07.479Z,8.53
2022-11-14T02:53:35.179Z,8.53
2022-11-14T02:56:04.304Z,8.51
2022-11-14T02:58:32.173Z,8.49
2022-11-14T03:01:19.556Z,8.46
2022-11-14T03:03:47.751Z,8.42
2022-11-14T03:06:15.454Z,8.46
2022-11-14T03:08:43.232Z,8.45
2022-11-14T03:11:12.285Z,8.43
2022-11-14T03:13:39.916Z,8.45
2022-11-14T03:16:08.455Z,8.44
2022-11-14T03:18:36.751Z,8.45
2022-11-14T03:21:08.031Z,8.42
2022-11-14T03:23:35.728Z,8.43
2022-11-14T03:26:03.953Z,8.43
2022-11-14T03:28:33.308Z,8.41
2022-11-14T03:31:00.941Z,8.41
2022-11-14T03:33:28.641Z,8.40
2022-11-14T03:35:56.301Z,8.39
2022-11-14T03:38:23.947Z,8.38
2022-11-14T03:40:51.639Z,8.37
2022-11-14T03:43:20.784Z,8.37
2022-11-14T03:45:49.887Z,8.35
2022-11-14T03:48:17.689Z,8.35
2022-11-14T03:50:45.577Z,8.34
2022-11-14T03:53:13.199Z,8.31
2022-11-14T03:55:40.773Z,8.32
2022-11-14T03:58:08.408Z,8.29
2022-11-14T04:00:36.098Z,8.28
2022-11-14T04:03:05.280Z,8.26
2022-11-14T04:05:33.000Z,8.26
2022-11-14T04:08:00.646Z,8.23
2022-11-14T04:10:28.236Z,8.21
2022-11-14T04:12:55.919Z,8.09
2022-11-14T04:15:23.480Z,8.18
2022-11-14T04:17:51.102Z,8.17
2022-11-14T04:20:20.608Z,8.15
2022-11-14T04:22:48.267Z,8.15
2022-11-14T04:25:16.068Z,8.12
2022-11-14T04:27:44.462Z,8.11
2022-11-14T04:30:12.939Z,8.07
2022-11-14T04:32:40.593Z,8.09
2022-11-14T04:35:08.800Z,8.07
2022-11-14T04:37:39.268Z,8.02
2022-11-14T04:40:08.443Z,8.02
2022-11-14T04:42:36.076Z,8.02
2022-11-14T04:45:03.870Z,8.02
2022-11-14T04:47:31.930Z,8.03
2022-11-14T04:49:59.656Z,8.03
2022-11-14T04:52:27.768Z,8.01
2022-11-14T04:54:57.096Z,8.01
2022-11-14T04:57:24.755Z,8.00
2022-11-14T04:59:52.405Z,8.00
2022-11-14T05:02:20.043Z,8.00
2022-11-14T05:04:48.426Z,8.00
2022-11-14T05:07:16.334Z,7.98
2022-11-14T05:09:44.014Z,7.97
2022-11-14T05:12:13.053Z,7.98
2022-11-14T05:14:40.664Z,7.97
2022-11-14T05:17:08.291Z,7.96
2022-11-14T05:19:35.963Z,7.96
2022-11-14T05:22:03.594Z,7.93
2022-11-14T05:24:31.230Z,7.94
2022-11-14T05:27:00.111Z,7.93
2022-11-14T05:29:29.161Z,7.93
2022-11-14T05:31:57.776Z,7.94
2022-11-14T05:34:25.493Z,7.93
2022-11-14T05:36:53.164Z,7.93
2022-11-14T05:39:20.864Z,7.90
2022-11-14T05:41:48.506Z,7.92
2022-11-14T05:44:16.144Z,7.91
2022-11-14T05:46:45.196Z,7.90
2022-11-14T05:49:13.707Z,7.91
2022-11-14T05:51:43.486Z,7.90
2022-11-14T05:54:11.128Z,7.89
2022-11-14T05:56:38.771Z,7.90
2022-11-14T05:59:06.516Z,7.86
2022-11-14T06:01:34.266Z,7.89
2022-11-14T06:04:07.156Z,7.83
2022-11-14T06:06:34.809Z,7.84
2022-11-14T06:09:02.537Z,7.85
2022-11-14T06:11:30.136Z,7.84
2022-11-14T06:13:57.773Z,7.83
2022-11-14T06:16:25.594Z,7.80
2022-11-14T06:18:54.291Z,7.80
2022-11-14T06:21:25.109Z,7.80
2022-11-14T06:23:52.815Z,7.78
2022-11-14T06:26:22.642Z,7.76
2022-11-14T06:28:50.446Z,7.76
2022-11-14T06:31:18.846Z,7.75
2022-11-14T06:33:46.974Z,7.73
2022-11-14T06:36:14.953Z,7.74
2022-11-14T06:38:44.597Z,7.73
2022-11-14T06:41:13.461Z,7.74
2022-11-14T06:43:42.629Z,7.75
2022-11-14T06:46:12.680Z,7.73
2022-11-14T06:48:40.612Z,7.75
2022-11-14T06:51:08.559Z,7.74
2022-11-14T06:53:37.044Z,7.74
2022-11-14T06:56:07.610Z,7.73
2022-11-14T06:58:36.846Z,7.74
2022-11-14T07:01:06.321Z,7.69
2022-11-14T07:03:34.327Z,7.73
2022-11-14T07:06:02.093Z,7.73
2022-11-14T07:08:29.965Z,7.72
2022-11-14T07:11:02.501Z,7.71
2022-11-14T07:13:32.584Z,7.68
2022-11-14T07:16:00.568Z,7.71
2022-11-14T07:18:28.939Z,7.72
2022-11-14T07:21:01.152Z,7.72
2022-11-14T07:23:29.488Z,7.73
2022-11-14T07:25:57.090Z,7.73
2022-11-14T07:28:24.722Z,7.74
2022-11-14T07:30:53.731Z,7.76
2022-11-14T07:33:21.411Z,7.74
2022-11-14T07:35:49.504Z,7.75
2022-11-14T07:38:17.532Z,7.78
2022-11-14T07:40:59.087Z,7.78
2022-11-14T07:43:28.165Z,7.80
2022-11-14T07:46:00.100Z,7.83
2022-11-14T07:48:28.559Z,7.85
2022-11-14T07:51:00.281Z,7.85
2022-11-14T07:53:28.317Z,7.88
2022-11-14T07:55:55.964Z,7.91
2022-11-14T07:58:23.826Z,7.92
2022-11-14T08:00:51.545Z,7.92
2022-11-14T08:03:20.665Z,7.94
2022-11-14T08:05:48.372Z,7.97
2022-11-14T08:08:16.073Z,7.99
2022-11-14T08:10:43.868Z,8.02
2022-11-14T08:16:00.201Z,8.08
2022-11-14T08:18:29.547Z,8.10
2022-11-14T08:20:57.643Z,8.13
2022-11-14T08:23:25.402Z,8.14
2022-11-14T08:25:53.443Z,8.16
2022-11-14T08:28:21.128Z,8.18
2022-11-14T08:30:48.979Z,8.16
2022-11-14T08:33:16.767Z,8.22
2022-11-14T08:35:45.836Z,8.23
2022-11-14T08:38:13.584Z,8.22
2022-11-14T08:40:41.217Z,8.25
2022-11-14T08:43:11.187Z,8.27
2022-11-14T08:45:38.868Z,8.30
2022-11-14T08:48:07.125Z,8.29
2022-11-14T08:50:34.877Z,8.31
2022-11-14T08:53:03.935Z,8.36
2022-11-14T08:55:31.970Z,8.40
2022-11-14T08:57:59.703Z,8.44
2022-11-14T09:00:27.562Z,8.46
2022-11-14T09:02:55.319Z,8.52
2022-11-14T09:05:23.064Z,8.56
2022-11-14T09:07:50.724Z,8.62
2022-11-14T09:10:19.711Z,8.66
2022-11-14T09:12:47.332Z,8.70
2022-11-14T09:15:14.976Z,8.72
2022-11-14T09:17:42.633Z,8.74
2022-11-14T09:20:10.730Z,8.80
2022-11-14T09:22:38.467Z,8.78
2022-11-14T09:25:06.935Z,8.85
2022-11-14T09:27:35.955Z,8.88
2022-11-14T09:30:03.721Z,8.91
2022-11-14T09:32:31.419Z,8.97
2022-11-14T09:34:59.028Z,9.00
2022-11-14T09:37:27.535Z,9.03
2022-11-14T09:39:55.243Z,9.08
2022-11-14T09:42:51.176Z,9.08
2022-11-14T09:45:19.003Z,9.13
2022-11-14T09:47:49.522Z,9.14
2022-11-14T09:50:24.423Z,9.21
2022-11-14T09:52:55.987Z,9.27
2022-11-14T09:55:24.676Z,9.31
2022-11-14T09:57:53.670Z,9.36
2022-11-14T10:00:22.881Z,9.42
2022-11-14T10:03:03.063Z,9.47
2022-11-14T10:05:40.986Z,9.53
2022-11-14T10:08:18.226Z,9.58
2022-11-14T10:10:52.597Z,9.65
2022-11-14T10:13:35.778Z,9.70
2022-11-14T10:16:07.563Z,9.76
2022-11-14T10:18:44.418Z,9.77
2022-11-14T10:21:25.428Z,9.91
2022-11-14T10:23:57.739Z,9.99
2022-11-14T10:26:34.104Z,10.00
2022-11-14T10:29:25.699Z,10.07
2022-11-14T10:31:57.216Z,10.12
2022-11-14T10:34:29.303Z,10.14
2022-11-14T10:37:03.649Z,10.19
2022-11-14T10:39:36.467Z,10.17
2022-11-14T10:42:11.252Z,10.24
2022-11-14T10:44:46.679Z,10.29
2022-11-14T10:47:16.284Z,10.36
2022-11-14T10:49:47.801Z,10.36
2022-11-14T10:52:17.988Z,10.46
2022-11-14T10:54:47.760Z,10.52
2022-11-14T10:57:17.869Z,10.56
2022-11-14T10:59:47.404Z,10.60
2022-11-14T11:02:15.511Z,10.63
2022-11-14T11:04:44.092Z,10.73
2022-11-14T11:07:39.334Z,10.78
2022-11-14T11:11:33.609Z,10.84
2022-11-14T11:14:02.343Z,10.88
2022-11-14T11:16:30.376Z,10.95
2022-11-14T11:19:15.023Z,11.01
2022-11-14T11:21:50.383Z,11.04
2022-11-14T11:24:32.300Z,11.08
2022-11-14T11:27:23.692Z,11.13
2022-11-14T11:30:13.203Z,11.22
2022-11-14T11:32:40.775Z,11.29
2022-11-14T11:35:13.325Z,11.34
2022-11-14T11:37:45.016Z,11.36
2022-11-14T11:40:18.653Z,11.42
2022-11-14T11:43:36.610Z,11.49
2022-11-14T11:45:41.014Z,11.55
2022-11-14T11:48:16.238Z,11.59
2022-11-14T11:50:43.998Z,11.62
2022-11-14T11:53:18.492Z,11.63
2022-11-14T11:55:47.807Z,11.66
2022-11-14T11:58:22.194Z,11.65
2022-11-14T12:02:21.520Z,11.60
2022-11-14T12:04:51.122Z,11.59
2022-11-14T12:07:20.502Z,11.56
2022-11-14T12:10:09.944Z,11.50
2022-11-14T12:12:52.999Z,11.44
2022-11-14T12:15:25.626Z,11.44
2022-11-14T12:18:21.762Z,11.42
2022-11-14T12:20:55.862Z,11.37
2022-11-14T12:23:53.107Z,11.35
2022-11-14T12:26:33.952Z,11.30
2022-11-14T12:29:13.345Z,11.29
2022-11-14T12:32:31.267Z,11.26
2022-11-14T12:35:00.222Z,11.24
2022-11-14T12:37:32.621Z,11.21
2022-11-14T12:40:01.965Z,11.21
2022-11-14T12:42:29.669Z,11.22
2022-11-14T12:44:57.342Z,11.21
2022-11-14T12:47:25.887Z,11.20
2022-11-14T12:50:23.561Z,11.17
2022-11-14T12:52:53.930Z,11.25
2022-11-14T12:55:53.975Z,11.27
2022-11-14T12:58:29.428Z,11.27
2022-11-14T13:01:05.913Z,11.23
2022-11-14T13:03:42.770Z,11.20
2022-11-14T13:07:34.361Z,11.13
2022-11-14T13:10:14.957Z,11.10
2022-11-14T13:13:00.826Z,11.12
2022-11-14T13:15:49.972Z,11.09
2022-11-14T13:18:40.148Z,11.10
2022-11-14T13:21:38.603Z,11.14
2022-11-14T13:24:10.580Z,11.20
2022-11-14T13:26:49.117Z,11.21
2022-11-14T13:29:59.888Z,11.21
2022-11-14T13:33:05.005Z,11.16
2022-11-14T13:36:02.144Z,11.15
2022-11-14T13:39:14.828Z,11.11
2022-11-14T13:45:31.589Z,11.09
2022-11-14T13:48:47.466Z,11.10
2022-11-14T13:51:41.601Z,11.04
2022-11-14T13:54:17.174Z,11.03
2022-11-14T13:56:55.480Z,11.02
2022-11-14T13:59:39.341Z,11.01
2022-11-14T14:02:55.289Z,11.01
2022-11-14T14:05:31.190Z,10.97
2022-11-14T14:08:14.474Z,11.00
2022-11-14T14:10:44.252Z,11.00
2022-11-14T14:13:19.549Z,11.01
2022-11-14T14:15:50.527Z,11.00
2022-11-14T14:18:26.556Z,11.02
2022-11-14T14:20:59.647Z,11.05
2022-11-14T14:25:49.863Z,11.02
2022-11-14T14:28:22.763Z,11.07
2022-11-14T14:31:09.683Z,11.07
2022-11-14T14:33:42.341Z,11.09
2022-11-14T14:38:00.693Z,11.10
2022-11-14T14:40:30.000Z,11.08
2022-11-14T14:43:53.119Z,11.06
2022-11-14T14:46:29.713Z,11.09
2022-11-14T14:48:57.932Z,11.07
2022-11-14T14:51:33.040Z,11.08
2022-11-14T14:54:00.993Z,11.09
2022-11-14T14:56:29.898Z,11.07
2022-11-14T14:58:58.928Z,11.07
2022-11-14T15:01:32.665Z,11.05
2022-11-14T15:04:04.369Z,11.05
2022-11-14T15:06:34.068Z,11.08
2022-11-14T15:09:04.811Z,11.10
2022-11-14T15:11:33.133Z,11.09
2022-11-14T15:14:02.998Z,11.10
2022-11-14T15:16:30.912Z,11.12
2022-11-14T15:18:59.351Z,11.13
2022-11-14T15:21:28.737Z,11.12
2022-11-14T15:24:01.437Z,11.13
2022-11-14T15:26:30.645Z,11.14
2022-11-14T15:29:08.956Z,11.12
2022-11-14T15:31:37.879Z,11.09
2022-11-14T15:34:07.415Z,11.10
2022-11-14T15:36:35.359Z,11.11
2022-11-14T15:39:05.837Z,11.11
2022-11-14T15:46:06.052Z,11.11
2022-11-14T15:48:33.700Z,11.12
2022-11-14T15:52:59.085Z,11.11
2022-11-14T15:55:27.650Z,11.13
2022-11-14T15:58:13.708Z,11.16
2022-11-14T16:00:57.093Z,11.12
2022-11-14T16:05:20.794Z,11.14
2022-11-14T16:07:48.724Z,11.13
2022-11-14T16:12:16.033Z,11.10
2022-11-14T16:14:43.807Z,11.09
2022-11-14T16:17:15.056Z,11.13
2022-11-14T16:19:42.935Z,11.11
2022-11-14T16:23:00.268Z,11.09
2022-11-14T16:26:39.628Z,11.11
2022-11-14T16:29:07.805Z,11.13
2022-11-14T16:31:35.510Z,11.13
2022-11-14T16:34:03.165Z,11.13
2022-11-14T16:36:31.394Z,11.12
2022-11-14T16:39:00.628Z,11.14
2022-11-14T16:41:28.785Z,11.13
2022-11-14T16:43:58.284Z,11.13
2022-11-14T16:46:25.999Z,11.13
2022-11-14T16:48:53.651Z,11.16
2022-11-14T16:51:47.157Z,11.17
2022-11-14T16:54:10.768Z,11.19
2022-11-14T16:56:38.405Z,11.19
2022-11-14T16:59:07.875Z,11.20
2022-11-14T17:01:35.641Z,11.20
2022-11-14T17:04:03.358Z,11.21
2022-11-14T17:06:31.021Z,11.22
2022-11-14T17:08:59.397Z,11.22
2022-11-14T17:11:27.938Z,11.23
2022-11-14T17:13:55.775Z,11.25
2022-11-14T17:16:25.234Z,11.25
2022-11-14T17:18:54.038Z,11.26
2022-11-14T17:21:22.189Z,11.26
2022-11-14T17:23:54.686Z,11.26
2022-11-14T17:26:22.395Z,11.24
2022-11-14T17:28:50.021Z,11.26
2022-11-14T17:31:17.656Z,11.25
2022-11-14T17:33:51.791Z,11.25
2022-11-14T17:36:19.820Z,11.24
2022-11-14T17:38:47.501Z,11.25
2022-11-14T17:41:15.338Z,11.24
2022-11-14T17:43:43.273Z,11.22
2022-11-14T17:46:15.949Z,11.24
2022-11-14T17:48:45.859Z,11.25
2022-11-14T17:51:14.926Z,11.24
2022-11-14T17:53:43.485Z,11.21
2022-11-14T17:56:18.136Z,11.21
2022-11-14T17:58:46.545Z,11.22
2022-11-14T18:01:16.331Z,11.19
2022-11-14T18:03:44.023Z,11.20
2022-11-14T18:06:14.196Z,11.14
2022-11-14T18:08:41.912Z,11.20
2022-11-14T18:12:38.732Z,11.22
2022-11-14T18:15:07.516Z,11.23
2022-11-14T18:17:35.240Z,11.19
2022-11-14T18:20:03.153Z,11.25
2022-11-14T18:22:31.819Z,11.24
2022-11-14T18:25:04.874Z,11.22
2022-11-14T18:27:35.634Z,11.22
2022-11-14T18:30:26.762Z,11.21
2022-11-14T18:32:53.485Z,11.21
2022-11-14T18:35:21.215Z,11.20
2022-11-14T18:37:48.946Z,11.18
2022-11-14T18:40:17.065Z,11.18
2022-11-14T18:42:44.786Z,11.18
2022-11-14T18:45:13.800Z,11.20
2022-11-14T18:47:41.527Z,11.20
2022-11-14T18:50:09.781Z,11.20
2022-11-14T18:53:36.334Z,11.18
2022-11-14T18:56:05.424Z,11.19
2022-11-14T18:58:33.184Z,11.18
2022-11-14T19:01:09.645Z,11.11
2022-11-14T19:03:37.400Z,11.19
2022-11-14T19:06:05.417Z,11.19
2022-11-14T19:08:33.174Z,11.18
2022-11-14T19:11:06.392Z,11.17
2022-11-14T19:13:34.634Z,11.17
2022-11-14T19:16:03.018Z,11.15
2022-11-14T19:18:31.389Z,11.13
2022-11-14T19:20:59.862Z,11.12
2022-11-14T19:23:27.941Z,11.12
2022-11-14T19:25:59.644Z,11.13
2022-11-14T19:28:30.278Z,11.18
2022-11-14T19:31:01.893Z,11.17
2022-11-14T19:33:29.780Z,11.17
2022-11-14T19:35:57.848Z,11.17
2022-11-14T19:38:26.126Z,11.15
2022-11-14T19:40:53.762Z,11.15
2022-11-14T19:43:21.751Z,11.17
2022-11-14T19:45:50.793Z,11.13
2022-11-14T19:48:18.498Z,11.14
2022-11-14T19:50:46.147Z,11.13
2022-11-14T19:53:13.748Z,11.12
2022-11-14T19:55:41.398Z,11.09
2022-11-14T19:58:09.038Z,11.12
2022-11-14T20:00:36.628Z,11.13
2022-11-14T20:03:05.712Z,11.12
2022-11-14T20:05:33.516Z,11.11
2022-11-14T20:08:01.062Z,11.10
2022-11-14T20:10:28.767Z,11.07
2022-11-14T20:12:56.400Z,11.10
2022-11-14T20:15:24.045Z,11.09
2022-11-14T20:17:51.663Z,11.08
2022-11-14T20:20:20.793Z,11.07
2022-11-14T20:22:48.518Z,11.07
2022-11-14T20:25:17.016Z,11.05
2022-11-14T20:27:44.649Z,11.05
2022-11-14T20:30:13.122Z,11.05
2022-11-14T20:32:40.792Z,11.06
2022-11-14T20:35:08.828Z,11.08
2022-11-14T20:37:37.852Z,11.08
2022-11-14T20:40:06.483Z,11.05
2022-11-14T20:42:34.155Z,11.04
2022-11-14T20:45:01.843Z,11.05
2022-11-14T20:47:39.676Z,11.08
2022-11-14T20:51:07.856Z,11.10
2022-11-14T20:55:40.174Z,11.10
2022-11-14T20:58:07.907Z,11.12
2022-11-14T21:00:35.593Z,11.11
2022-11-14T21:03:03.305Z,11.09
2022-11-14T21:05:31.093Z,11.09
2022-11-14T21:07:58.768Z,11.06
2022-11-14T21:10:43.834Z,11.02
2022-11-14T21:13:30.931Z,10.98
2022-11-14T21:15:58.842Z,10.98
2022-11-14T21:18:26.563Z,10.98
2022-11-14T21:21:02.132Z,10.89
2022-11-14T21:23:29.812Z,10.89
2022-11-14T21:26:06.808Z,10.89
2022-11-14T21:28:36.840Z,10.89
2022-11-14T21:31:14.988Z,10.89
2022-11-14T21:33:42.710Z,10.87
2022-11-14T21:36:42.830Z,10.86
2022-11-14T21:38:59.224Z,10.84
2022-11-14T21:41:28.249Z,10.82
2022-11-14T21:43:58.389Z,10.80
2022-11-14T21:46:26.540Z,10.79
2022-11-14T21:48:55.599Z,10.77
2022-11-14T21:51:24.457Z,10.76
2022-11-14T21:53:55.048Z,10.76
2022-11-14T21:56:24.140Z,10.73
2022-11-14T21:59:12.653Z,10.71
2022-11-14T22:02:00.535Z,10.68
2022-11-14T22:04:28.598Z,10.66
2022-11-14T22:06:56.623Z,10.61
2022-11-14T22:09:24.730Z,10.59
2022-11-14T22:11:52.401Z,10.57
2022-11-14T22:14:20.039Z,10.51
2022-11-14T22:16:49.165Z,10.51
2022-11-14T22:19:16.912Z,10.48
2022-11-14T22:21:44.647Z,10.46
2022-11-14T22:24:12.245Z,10.43
2022-11-14T22:26:41.349Z,10.42
2022-11-14T22:29:09.646Z,10.40
2022-11-14T22:31:38.215Z,10.38
2022-11-14T22:34:07.967Z,10.33
2022-11-14T22:36:36.714Z,10.32
2022-11-14T22:39:05.460Z,9.92
2022-11-14T22:41:34.162Z,10.23
2022-11-14T22:44:02.225Z,10.26
2022-11-14T22:46:30.191Z,10.26
2022-11-14T22:48:58.186Z,10.27
2022-11-14T22:51:28.670Z,10.26
2022-11-14T22:53:57.618Z,10.26
2022-11-14T22:56:26.896Z,10.28
2022-11-14T22:58:55.097Z,10.30
2022-11-14T23:01:24.259Z,10.29
2022-11-14T23:03:55.206Z,10.32
2022-11-14T23:06:23.821Z,10.33
2022-11-14T23:08:53.213Z,10.33
2022-11-14T23:11:23.023Z,10.33
2022-11-14T23:13:52.770Z,10.36
2022-11-14T23:16:21.638Z,10.38
2022-11-14T23:18:51.045Z,10.36
2022-11-14T23:21:20.189Z,10.40
2022-11-14T23:23:48.074Z,10.37
2022-11-14T23:26:18.917Z,10.39
2022-11-14T23:28:46.691Z,10.42
2022-11-14T23:31:19.449Z,10.42
2022-11-14T23:33:47.290Z,10.41
2022-11-14T23:36:15.398Z,10.42
2022-11-14T23:38:43.246Z,10.41
2022-11-14T23:41:15.680Z,10.44
2022-11-14T23:43:44.714Z,10.46
2022-11-14T23:46:12.429Z,10.47
2022-11-14T23:48:40.066Z,10.49
2022-11-14T23:51:08.213Z,10.48
2022-11-14T23:53:35.906Z,10.47
2022-11-14T23:56:03.950Z,10.50
2022-11-14T23:58:31.807Z,10.51
